createdAt,value
2018-12-23T00:00:13.999Z,98321.00
2018-12-23T00:04:16.331Z,98338.00
2018-12-23T00:08:18.648Z,98326.00
2018-12-23T00:12:20.998Z,98335.00
2018-12-23T00:16:23.300Z,98340.00
2018-12-23T00:20:25.613Z,98353.00
2018-12-23T00:24:28.070Z,98346.00
2018-12-23T00:28:30.447Z,98344.00
2018-12-23T00:32:33.073Z,98353.00
2018-12-23T00:36:35.408Z,98353.00
2018-12-23T00:40:37.725Z,98338.00
2018-12-23T00:44:40.002Z,98351.00
2018-12-23T00:48:42.347Z,98357.00
2018-12-23T00:52:44.690Z,98359.00
2018-12-23T00:56:47.003Z,98362.00
2018-12-23T01:00:49.333Z,98366.00
2018-12-23T01:04:51.679Z,98368.00
2018-12-23T01:08:54.086Z,98364.00
2018-12-23T01:12:56.444Z,98366.00
2018-12-23T01:16:58.795Z,98375.00
2018-12-23T01:21:01.178Z,98375.00
2018-12-23T01:25:04.112Z,98390.00
2018-12-23T01:29:06.548Z,98389.00
2018-12-23T01:33:08.916Z,98374.00
2018-12-23T01:37:11.230Z,98368.00
2018-12-23T01:41:13.606Z,98377.00
2018-12-23T01:45:15.935Z,98384.00
2018-12-23T01:49:18.390Z,98388.00
2018-12-23T01:53:20.739Z,98402.00
2018-12-23T01:57:23.089Z,98398.00
2018-12-23T02:01:25.432Z,98408.00
2018-12-23T02:05:27.800Z,98421.00
2018-12-23T02:09:30.120Z,98414.00
2018-12-23T02:13:32.425Z,98413.00
2018-12-23T02:17:34.777Z,98404.00
2018-12-23T02:21:37.130Z,98412.00
2018-12-23T02:25:39.513Z,98396.00
2018-12-23T02:29:41.955Z,98390.00
2018-12-23T02:33:44.253Z,98395.00
2018-12-23T02:37:46.609Z,98399.00
2018-12-23T02:41:48.892Z,98403.00
2018-12-23T02:45:51.258Z,98407.00
2018-12-23T02:49:53.592Z,98413.00
2018-12-23T02:53:55.913Z,98413.00
2018-12-23T02:57:58.202Z,98410.00
2018-12-23T03:02:00.634Z,98415.00
2018-12-23T03:06:06.069Z,98416.00
2018-12-23T03:10:05.648Z,98421.00
2018-12-23T03:14:08.056Z,98421.00
2018-12-23T03:18:10.439Z,98417.00
2018-12-23T03:22:12.738Z,98409.00
2018-12-23T03:26:15.027Z,98401.00
2018-12-23T03:30:17.431Z,98398.00
2018-12-23T03:34:19.782Z,98401.00
2018-12-23T03:38:22.116Z,98403.00
2018-12-23T03:42:24.478Z,98409.00
2018-12-23T03:46:26.826Z,98400.00
2018-12-23T03:50:29.192Z,98390.00
2018-12-23T03:54:31.528Z,98387.00
2018-12-23T03:58:33.900Z,98388.00
2018-12-23T04:02:36.211Z,98377.00
2018-12-23T04:06:38.624Z,98382.00
2018-12-23T04:10:41.011Z,98386.00
2018-12-23T04:14:43.404Z,98396.00
2018-12-23T04:18:45.761Z,98399.00
2018-12-23T04:22:48.155Z,98385.00
2018-12-23T04:26:50.601Z,98382.00
2018-12-23T04:30:52.969Z,98389.00
2018-12-23T04:34:55.302Z,98381.00
2018-12-23T04:38:57.637Z,98382.00
2018-12-23T04:43:00.060Z,98399.00
2018-12-23T04:47:02.368Z,98390.00
2018-12-23T04:51:04.747Z,98397.00
2018-12-23T04:55:07.105Z,98385.00
2018-12-23T04:59:09.449Z,98383.00
2018-12-23T05:03:11.793Z,98378.00
2018-12-23T05:07:14.193Z,98383.00
2018-12-23T05:11:16.562Z,98381.00
2018-12-23T05:15:18.891Z,98372.00
2018-12-23T05:19:21.200Z,98380.00
2018-12-23T05:23:23.562Z,98385.00
2018-12-23T05:27:25.875Z,98379.00
2018-12-23T05:31:28.259Z,98377.00
2018-12-23T05:35:30.598Z,98374.00
2018-12-23T05:39:32.897Z,98390.00
2018-12-23T05:43:35.246Z,98394.00
2018-12-23T05:47:37.555Z,98383.00
2018-12-23T05:51:39.882Z,98390.00
2018-12-23T05:55:41.151Z,98391.00
2018-12-23T05:59:43.530Z,98376.00
2018-12-23T06:03:45.871Z,98383.00
2018-12-23T06:07:48.190Z,98385.00
2018-12-23T06:11:50.555Z,98392.00
2018-12-23T06:15:53.035Z,98391.00
2018-12-23T06:19:55.348Z,98395.00
2018-12-23T06:23:57.774Z,98390.00
2018-12-23T06:28:00.151Z,98390.00
2018-12-23T06:32:02.506Z,98391.00
2018-12-23T06:36:04.805Z,98388.00
2018-12-23T06:40:07.188Z,98385.00
2018-12-23T06:44:09.505Z,98392.00
2018-12-23T06:48:11.860Z,98403.00
2018-12-23T06:52:14.294Z,98398.00
2018-12-23T06:56:16.808Z,98407.00
2018-12-23T07:00:19.274Z,98413.00
2018-12-23T07:04:21.601Z,98415.00
2018-12-23T07:08:23.984Z,98385.00
2018-12-23T07:12:26.386Z,98402.00
2018-12-23T07:16:28.705Z,98403.00
2018-12-23T07:20:31.123Z,98395.00
2018-12-23T07:24:33.536Z,98405.00
2018-12-23T07:28:35.970Z,98412.00
2018-12-23T07:32:38.370Z,98411.00
2018-12-23T07:36:49.338Z,98411.00
2018-12-23T07:40:43.135Z,98410.00
2018-12-23T07:44:45.534Z,98408.00
2018-12-23T07:48:47.881Z,98411.00
2018-12-23T07:52:50.318Z,98413.00
2018-12-23T07:56:52.720Z,98405.00
2018-12-23T08:00:55.069Z,98399.00
2018-12-23T08:04:57.458Z,98407.00
2018-12-23T08:08:59.824Z,98406.00
2018-12-23T08:13:02.228Z,98404.00
2018-12-23T08:17:04.669Z,98406.00
2018-12-23T08:21:07.042Z,98412.00
2018-12-23T08:25:09.490Z,98402.00
2018-12-23T08:29:11.843Z,98398.00
2018-12-23T08:33:14.192Z,98400.00
2018-12-23T08:37:16.657Z,98407.00
2018-12-23T08:41:19.023Z,98397.00
2018-12-23T08:45:21.395Z,98390.00
2018-12-23T08:49:23.797Z,98394.00
2018-12-23T08:53:26.198Z,98391.00
2018-12-23T08:57:28.774Z,98397.00
2018-12-23T09:01:31.117Z,98393.00
2018-12-23T09:05:33.407Z,98387.00
2018-12-23T09:09:36.130Z,98391.00
2018-12-23T09:13:38.522Z,98389.00
2018-12-23T09:17:40.895Z,98373.00
2018-12-23T09:21:43.248Z,98376.00
2018-12-23T09:25:45.597Z,98374.00
2018-12-23T09:29:47.963Z,98383.00
2018-12-23T09:33:50.364Z,98383.00
2018-12-23T09:38:01.033Z,98367.00
2018-12-23T09:41:55.517Z,98350.00
2018-12-23T09:45:57.882Z,98337.00
2018-12-23T09:50:00.269Z,98349.00
2018-12-23T09:54:02.617Z,98352.00
2018-12-23T09:58:05.097Z,98352.00
2018-12-23T10:02:07.443Z,98349.00
2018-12-23T10:06:09.844Z,98357.00
2018-12-23T10:10:12.238Z,98342.00
2018-12-23T10:14:14.932Z,98336.00
2018-12-23T10:18:17.352Z,98335.00
2018-12-23T10:22:19.697Z,98329.00
2018-12-23T10:26:22.068Z,98317.00
2018-12-23T10:30:24.473Z,98314.00
2018-12-23T10:34:26.878Z,98295.00
2018-12-23T10:38:29.242Z,98293.00
2018-12-23T10:42:31.664Z,98286.00
2018-12-23T10:46:34.016Z,98280.00
2018-12-23T10:50:36.344Z,98269.00
2018-12-23T10:54:38.748Z,98262.00
2018-12-23T10:58:41.109Z,98250.00
2018-12-23T11:02:43.514Z,98235.00
2018-12-23T11:06:45.849Z,98232.00
2018-12-23T11:10:48.188Z,98223.00
2018-12-23T11:14:50.624Z,98220.00
2018-12-23T11:18:52.997Z,98208.00
2018-12-23T11:22:55.363Z,98203.00
2018-12-23T11:26:57.660Z,98189.00
2018-12-23T11:31:00.069Z,98170.00
2018-12-23T11:35:02.450Z,98169.00
2018-12-23T11:39:06.927Z,98161.00
2018-12-23T11:43:09.327Z,98159.00
2018-12-23T11:47:11.686Z,98152.00
2018-12-23T11:51:14.189Z,98153.00
2018-12-23T11:55:16.425Z,98148.00
2018-12-23T11:59:18.726Z,98139.00
2018-12-23T12:03:21.152Z,98136.00
2018-12-23T12:07:23.528Z,98128.00
2018-12-23T12:11:27.239Z,98130.00
2018-12-23T12:15:29.666Z,98118.00
2018-12-23T12:19:32.646Z,98107.00
2018-12-23T12:23:34.983Z,98102.00
2018-12-23T12:27:38.006Z,98089.00
2018-12-23T12:31:40.411Z,98065.00
2018-12-23T12:35:42.705Z,98069.00
2018-12-23T12:39:45.053Z,98068.00
2018-12-23T12:43:47.386Z,98067.00
2018-12-23T12:47:50.468Z,98057.00
2018-12-23T12:51:52.782Z,98057.00
2018-12-23T12:55:55.316Z,98051.00
2018-12-23T12:59:57.858Z,98041.00
2018-12-23T13:04:01.502Z,98041.00
2018-12-23T13:08:03.896Z,98029.00
2018-12-23T13:12:06.421Z,98029.00
2018-12-23T13:16:08.869Z,98030.00
2018-12-23T13:20:11.432Z,98022.00
2018-12-23T13:24:13.791Z,98014.00
2018-12-23T13:28:16.589Z,98015.00
2018-12-23T13:32:19.319Z,97999.00
2018-12-23T13:36:24.213Z,97989.00
2018-12-23T13:40:38.977Z,97986.00
2018-12-23T13:46:56.931Z,97972.00
2018-12-23T13:51:27.541Z,97963.00
2018-12-23T13:55:38.245Z,97944.00
2018-12-23T13:59:57.267Z,97940.00
2018-12-23T14:05:13.956Z,97939.00
2018-12-23T14:10:31.271Z,97923.00
2018-12-23T14:14:34.300Z,97928.00
2018-12-23T14:18:38.886Z,97910.00
2018-12-23T14:22:43.167Z,97899.00
2018-12-23T14:26:45.751Z,97889.00
2018-12-23T14:30:48.492Z,97870.00
2018-12-23T14:34:50.906Z,97866.00
2018-12-23T14:38:55.601Z,97862.00
2018-12-23T14:42:58.460Z,97854.00
2018-12-23T14:47:03.177Z,97836.00
2018-12-23T14:51:06.672Z,97833.00
2018-12-23T14:55:09.136Z,97824.00
2018-12-23T14:59:12.507Z,97821.00
2018-12-23T15:03:14.954Z,97816.00
2018-12-23T15:07:18.763Z,97807.00
2018-12-23T15:11:21.362Z,97795.00
2018-12-23T15:15:25.381Z,97779.00
2018-12-23T15:19:27.919Z,97768.00
2018-12-23T15:23:30.350Z,97789.00
2018-12-23T15:27:34.461Z,97777.00
2018-12-23T15:31:36.911Z,97753.00
2018-12-23T15:35:42.395Z,97742.00
2018-12-23T15:39:44.875Z,97742.00
2018-12-23T15:43:47.941Z,97739.00
2018-12-23T15:47:50.486Z,97736.00
2018-12-23T15:51:52.845Z,97725.00
2018-12-23T15:55:55.552Z,97721.00
2018-12-23T15:59:58.571Z,97714.00
2018-12-23T16:04:01.023Z,97703.00
2018-12-23T16:08:03.645Z,97688.00
2018-12-23T16:12:08.373Z,97672.00
2018-12-23T16:16:10.941Z,97666.00
2018-12-23T16:20:14.951Z,97671.00
2018-12-23T16:24:17.999Z,97658.00
2018-12-23T16:28:21.007Z,97650.00
2018-12-23T16:32:24.882Z,97650.00
2018-12-23T16:36:27.344Z,97635.00
2018-12-23T16:40:30.841Z,97626.00
2018-12-23T16:44:33.309Z,97626.00
2018-12-23T16:48:36.290Z,97613.00
2018-12-23T16:52:38.751Z,97609.00
2018-12-23T16:56:41.147Z,97604.00
2018-12-23T17:00:44.200Z,97607.00
2018-12-23T17:04:46.600Z,97598.00
2018-12-23T17:08:48.975Z,97579.00
2018-12-23T17:12:51.379Z,97592.00
2018-12-23T17:16:53.729Z,97603.00
2018-12-23T17:20:56.131Z,97581.00
2018-12-23T17:24:58.506Z,97573.00
2018-12-23T17:29:00.845Z,97554.00
2018-12-23T17:33:03.294Z,97556.00
2018-12-23T17:37:05.740Z,97547.00
2018-12-23T17:41:08.125Z,97547.00
2018-12-23T17:45:10.507Z,97542.00
2018-12-23T17:49:12.891Z,97541.00
2018-12-23T17:53:15.270Z,97535.00
2018-12-23T17:57:17.570Z,97533.00
2018-12-23T18:01:19.950Z,97527.00
2018-12-23T18:05:22.345Z,97522.00
2018-12-23T18:09:24.778Z,97521.00
2018-12-23T18:13:27.184Z,97509.00
2018-12-23T18:17:29.551Z,97510.00
2018-12-23T18:21:31.991Z,97491.00
2018-12-23T18:25:34.409Z,97493.00
2018-12-23T18:29:36.754Z,97465.00
2018-12-23T18:33:39.151Z,97478.00
2018-12-23T18:37:41.665Z,97480.00
2018-12-23T18:41:44.154Z,97473.00
2018-12-23T18:45:47.191Z,97468.00
2018-12-23T18:49:49.594Z,97462.00
2018-12-23T18:53:52.581Z,97456.00
2018-12-23T18:57:55.005Z,97444.00
2018-12-23T19:02:02.706Z,97445.00
2018-12-23T19:06:07.194Z,97444.00
2018-12-23T19:10:17.589Z,97437.00
2018-12-23T19:14:31.247Z,97441.00
2018-12-23T19:18:53.955Z,97433.00
2018-12-23T19:23:07.647Z,97437.00
2018-12-23T19:27:21.370Z,97426.00
2018-12-23T19:31:35.921Z,97403.00
2018-12-23T19:35:49.355Z,97405.00
2018-12-23T19:42:05.639Z,97408.00
2018-12-23T19:46:35.072Z,97405.00
2018-12-23T19:50:55.683Z,97403.00
2018-12-23T19:55:18.488Z,97393.00
2018-12-23T20:00:30.450Z,97381.00
2018-12-23T20:05:50.349Z,97388.00
2018-12-23T20:10:07.550Z,97374.00
2018-12-23T20:15:30.499Z,97364.00
2018-12-23T20:20:19.703Z,97365.00
2018-12-23T20:24:33.797Z,97366.00
2018-12-23T20:30:58.630Z,97361.00
2018-12-23T20:35:14.961Z,97383.00
2018-12-23T20:39:31.330Z,97373.00
2018-12-23T20:45:48.139Z,97366.00
2018-12-23T20:50:01.336Z,97375.00
2018-12-23T20:56:22.558Z,97378.00
2018-12-23T21:01:38.935Z,97366.00
2018-12-23T21:05:52.373Z,97360.00
2018-12-23T21:10:16.858Z,97368.00
2018-12-23T21:14:31.028Z,97383.00
2018-12-23T21:19:05.831Z,97387.00
2018-12-23T21:24:18.248Z,97386.00
2018-12-23T21:28:38.823Z,97379.00
2018-12-23T21:32:52.434Z,97392.00
2018-12-23T21:37:07.784Z,97388.00
2018-12-23T21:41:24.508Z,97381.00
2018-12-23T21:46:05.202Z,97377.00
2018-12-23T21:50:17.648Z,97368.00
2018-12-23T21:56:34.263Z,97357.00
2018-12-23T22:00:51.595Z,97347.00
2018-12-23T22:05:08.808Z,97340.00
2018-12-23T22:10:25.143Z,97345.00
2018-12-23T22:14:28.075Z,97337.00
2018-12-23T22:18:30.621Z,97335.00
2018-12-23T22:22:32.976Z,97348.00
2018-12-23T22:26:35.333Z,97342.00
2018-12-23T22:30:37.782Z,97360.00
2018-12-23T22:34:40.902Z,97347.00
2018-12-23T22:38:43.270Z,97309.00
2018-12-23T22:42:45.898Z,97346.00
2018-12-23T22:46:48.984Z,97344.00
2018-12-23T22:50:51.287Z,97347.00
2018-12-23T22:54:53.672Z,97332.00
2018-12-23T22:58:56.246Z,97336.00
2018-12-23T23:02:58.662Z,97319.00
2018-12-23T23:07:01.053Z,97331.00
2018-12-23T23:11:03.449Z,97319.00
2018-12-23T23:15:05.952Z,97344.00
2018-12-23T23:19:08.292Z,97390.00
2018-12-23T23:23:10.887Z,97429.00
2018-12-23T23:27:13.938Z,97439.00
2018-12-23T23:31:16.336Z,97451.00
2018-12-23T23:35:18.702Z,97481.00
2018-12-23T23:39:21.057Z,97467.00
2018-12-23T23:43:23.408Z,97469.00
2018-12-23T23:47:25.727Z,97480.00
2018-12-23T23:51:28.068Z,97499.00
2018-12-23T23:55:30.381Z,97486.00
2018-12-23T23:59:32.692Z,97497.00
